Time;durP1;ratioP1;P1;durP2;ratioP2;P2;SDS_P1;SDS_P2;PMS_P1;PMS_P2;Temp;Humidity;BMP_temperature;BMP_pressure;BME280_temperature;BME280_humidity;BME280_pressure;Samples;Min_cycle;Max_cycle;Signal;HPM_P1;HPM_P2
2022/01/31 00:00:56;;;;;;;15.75;4.35;;;;;;;-0.83;85.35;96957.50;2065201;28;20264;-58
2022/01/31 00:01:58;;;;;;;14.23;4.93;;;;;;;-0.87;85.57;96962.75;2065401;28;20206;-58
2022/01/31 00:03:00;;;;;;;16.83;4.90;;;;;;;-1.11;85.59;96928.03;2063167;28;20201;-58
2022/01/31 00:04:01;;;;;;;20.20;4.82;;;;;;;-0.91;85.76;96948.25;2064891;28;20244;-59
2022/01/31 00:05:04;;;;;;;17.08;5.60;;;;;;;-0.88;85.08;96945.59;2065296;28;20191;-59
2022/01/31 00:06:05;;;;;;;17.83;5.38;;;;;;;-0.72;85.31;96962.47;2065004;28;20202;-59
2022/01/31 00:07:08;;;;;;;15.10;4.43;;;;;;;-0.67;84.78;96960.66;2065176;28;20233;-58
2022/01/31 00:08:09;;;;;;;15.88;5.38;;;;;;;-0.79;84.30;96960.88;2065355;28;20209;-58
2022/01/31 00:09:15;;;;;;;18.85;5.38;;;;;;;-0.78;85.04;96966.88;2064791;28;20202;-58
2022/01/31 00:10:26;;;;;;;22.10;5.00;;;;;;;-0.82;85.10;96950.66;2065013;28;20256;-58
2022/01/31 00:11:27;;;;;;;17.17;4.10;;;;;;;-0.80;85.61;96959.19;2065223;28;20720;-59
2022/01/31 00:12:32;;;;;;;14.07;4.90;;;;;;;-0.81;85.39;96960.06;2065227;28;20532;-59
2022/01/31 00:13:38;;;;;;;25.10;5.57;;;;;;;-0.79;85.38;96955.75;2065359;28;20237;-59
2022/01/31 00:14:43;;;;;;;23.75;6.00;;;;;;;-0.85;85.59;96951.53;2064696;28;20225;-59
2022/01/31 00:15:52;;;;;;;19.33;4.68;;;;;;;-0.88;85.39;96953.31;2065177;28;20199;-58
2022/01/31 00:16:54;;;;;;;15.45;4.45;;;;;;;-0.87;85.76;96957.59;2065118;28;20202;-58
2022/01/31 00:17:55;;;;;;;17.63;5.60;;;;;;;-0.85;86.15;96959.25;2065161;28;20672;-59
2022/01/31 00:19:00;;;;;;;27.00;5.30;;;;;;;-0.92;85.90;96957.69;2065070;28;20286;-58
2022/01/31 00:20:02;;;;;;;13.73;5.13;;;;;;;-1.15;85.99;96914.38;2064879;28;20219;-59
2022/01/31 00:21:04;;;;;;;21.25;5.25;;;;;;;-0.86;85.85;96933.59;2065160;28;20198;-58
2022/01/31 00:22:08;;;;;;;18.50;4.25;;;;;;;-0.71;85.22;96938.44;2065098;28;20202;-58
2022/01/31 00:23:09;;;;;;;13.27;4.05;;;;;;;-0.74;85.64;96928.22;2064011;28;20205;-59
2022/01/31 00:24:11;;;;;;;15.65;4.57;;;;;;;-0.75;85.89;96926.50;2064540;28;20422;-59
2022/01/31 00:25:12;;;;;;;18.40;4.78;;;;;;;-0.80;85.64;96915.47;2065103;28;21157;-58
2022/01/31 00:26:14;;;;;;;17.10;3.95;;;;;;;-0.71;85.76;96919.59;2064943;28;20206;-58
2022/01/31 00:27:15;;;;;;;19.48;4.45;;;;;;;-0.82;85.76;96901.81;2064749;28;20201;-58
2022/01/31 00:28:17;;;;;;;13.63;4.22;;;;;;;-0.71;85.91;96920.44;2063063;28;20289;-59
2022/01/31 00:29:19;;;;;;;16.55;3.80;;;;;;;-0.72;85.63;96921.31;2068173;28;20214;-59
2022/01/31 00:30:20;;;;;;;15.38;3.60;;;;;;;-0.92;86.33;96885.69;2067565;28;20755;-58
2022/01/31 00:31:22;;;;;;;20.95;4.38;;;;;;;-0.83;85.87;96895.78;2064558;28;20194;-58
2022/01/31 00:32:25;;;;;;;8.70;3.97;;;;;;;-0.74;86.02;96933.38;2064085;28;20209;-58
2022/01/31 00:33:26;;;;;;;14.00;4.22;;;;;;;-0.83;86.14;96930.94;2064020;28;20592;-59
2022/01/31 00:34:28;;;;;;;10.80;4.35;;;;;;;-0.81;86.18;96942.06;2064145;28;20709;-58
2022/01/31 00:35:30;;;;;;;16.30;4.35;;;;;;;-1.00;85.88;96896.13;2068306;28;20281;-59
2022/01/31 00:36:31;;;;;;;24.75;5.05;;;;;;;-0.76;85.93;96932.53;2067367;28;20676;-58
2022/01/31 00:37:33;;;;;;;16.10;4.47;;;;;;;-1.08;86.26;96898.00;2064747;28;20277;-58
2022/01/31 00:38:35;;;;;;;15.88;3.60;;;;;;;-0.76;85.97;96937.69;2064675;28;20203;-58
2022/01/31 00:39:37;;;;;;;16.92;4.45;;;;;;;-0.65;85.77;96929.75;2064483;28;20242;-58
2022/01/31 00:40:41;;;;;;;13.88;4.72;;;;;;;-0.74;86.05;96932.53;2065048;28;20206;-58
2022/01/31 00:41:43;;;;;;;24.17;4.85;;;;;;;-0.67;85.62;96927.22;2064836;28;20225;-58
2022/01/31 00:42:45;;;;;;;11.57;3.75;;;;;;;-0.65;85.53;96897.19;2064874;28;20246;-58
2022/01/31 00:43:57;;;;;;;17.83;4.20;;;;;;;-0.65;85.49;96919.47;2063326;28;20210;-58
2022/01/31 00:45:12;;;;;;;15.77;4.10;;;;;;;-0.61;85.67;96914.25;2063285;28;20218;-58
2022/01/31 00:46:22;;;;;;;9.95;4.22;;;;;;;-0.54;85.08;96909.81;2064837;28;20194;-59
2022/01/31 00:47:27;;;;;;;18.20;3.80;;;;;;;-0.57;85.39;96906.44;2064901;28;20210;-58
2022/01/31 00:48:40;;;;;;;11.40;4.57;;;;;;;-0.56;85.32;96898.72;2064845;28;20198;-58
2022/01/31 00:49:49;;;;;;;13.20;3.88;;;;;;;-0.63;85.16;96881.69;2064582;28;20218;-58
2022/01/31 00:50:50;;;;;;;12.82;4.53;;;;;;;-0.65;85.11;96883.44;2064714;28;20600;-58
2022/01/31 00:51:52;;;;;;;20.02;4.47;;;;;;;-1.03;85.67;96831.88;2064903;28;20201;-58
2022/01/31 00:52:54;;;;;;;16.05;4.97;;;;;;;-0.86;86.32;96877.03;2064764;28;20249;-59
2022/01/31 00:53:56;;;;;;;19.27;4.50;;;;;;;-0.89;86.19;96865.03;2064763;28;20235;-58
2022/01/31 00:54:58;;;;;;;10.98;3.80;;;;;;;-0.89;86.24;96861.63;2064459;28;20222;-58
2022/01/31 00:56:00;;;;;;;15.05;4.40;;;;;;;-0.95;86.56;96869.47;2064924;28;20198;-58
2022/01/31 00:57:01;;;;;;;17.25;4.78;;;;;;;-0.97;86.68;96863.50;2064878;28;20205;-58
2022/01/31 00:58:03;;;;;;;17.42;5.22;;;;;;;-1.03;86.88;96855.03;2065060;28;20596;-58
2022/01/31 00:59:04;;;;;;;23.63;5.50;;;;;;;-1.01;87.28;96852.44;2064508;28;20193;-58
2022/01/31 01:00:07;;;;;;;15.43;4.90;;;;;;;-1.00;87.12;96849.84;2064796;28;20209;-58
2022/01/31 01:01:09;;;;;;;13.52;4.45;;;;;;;-0.95;87.02;96841.19;2064612;28;20206;-58
2022/01/31 01:02:10;;;;;;;20.80;5.10;;;;;;;-0.93;87.14;96847.97;2064939;28;20201;-58
2022/01/31 01:03:12;;;;;;;28.50;5.32;;;;;;;-0.93;87.29;96850.56;2064812;28;20201;-58
2022/01/31 01:04:14;;;;;;;22.17;4.10;;;;;;;-0.90;86.70;96849.63;2064377;28;20204;-58
2022/01/31 01:05:16;;;;;;;17.23;4.80;;;;;;;-0.88;87.07;96847.88;2064855;28;20723;-58
2022/01/31 01:06:17;;;;;;;12.38;4.40;;;;;;;-0.83;87.31;96844.34;2064884;28;20210;-58
2022/01/31 01:07:22;;;;;;;17.10;4.05;;;;;;;-0.75;86.71;96843.34;2063905;28;20206;-58
2022/01/31 01:08:24;;;;;;;11.75;4.07;;;;;;;-0.76;87.09;96842.53;2064633;28;20268;-59
2022/01/31 01:09:26;;;;;;;17.05;4.97;;;;;;;-0.74;86.82;96837.34;2064319;28;20709;-58
2022/01/31 01:10:27;;;;;;;19.02;4.10;;;;;;;-0.71;86.72;96834.69;2064639;28;20201;-59
2022/01/31 01:11:29;;;;;;;19.05;4.40;;;;;;;-0.66;87.02;96835.47;2064914;28;20239;-58
2022/01/31 01:12:31;;;;;;;14.65;3.95;;;;;;;-0.66;87.02;96832.91;2063793;28;20235;-58
2022/01/31 01:13:33;;;;;;;14.85;5.15;;;;;;;-0.68;86.41;96830.34;2064774;28;20233;-58
2022/01/31 01:14:34;;;;;;;22.75;4.97;;;;;;;-0.85;86.74;96807.53;2064210;28;20222;-58
2022/01/31 01:15:36;;;;;;;15.10;3.78;;;;;;;-0.65;86.75;96832.88;2064653;28;20198;-58
2022/01/31 01:16:38;;;;;;;22.45;5.15;;;;;;;-0.64;86.91;96831.13;2064690;28;20203;-58
2022/01/31 01:17:39;;;;;;;18.80;3.80;;;;;;;-0.67;86.95;96818.31;2064627;28;20208;-58
2022/01/31 01:18:41;;;;;;;14.18;3.97;;;;;;;-0.53;86.85;96818.03;2064748;28;20202;-58
2022/01/31 01:19:43;;;;;;;18.75;3.92;;;;;;;-0.48;86.35;96808.50;2064127;28;20596;-58
2022/01/31 01:20:45;;;;;;;15.73;2.78;;;;;;;-0.47;86.22;96795.59;2064722;28;20289;-58
2022/01/31 01:21:46;;;;;;;13.63;3.83;;;;;;;-0.35;85.83;96804.78;2064398;28;20201;-58
2022/01/31 01:22:48;;;;;;;18.40;3.90;;;;;;;-0.31;85.92;96803.00;2064676;28;20358;-59
2022/01/31 01:23:49;;;;;;;13.88;4.25;;;;;;;-0.50;85.69;96751.06;2064758;28;20645;-58
2022/01/31 01:24:51;;;;;;;18.10;4.60;;;;;;;-0.29;85.22;96785.78;2064220;28;20732;-58
2022/01/31 01:25:52;;;;;;;16.77;4.15;;;;;;;-0.32;85.71;96781.53;2064576;28;20198;-58
2022/01/31 01:26:54;;;;;;;14.32;4.03;;;;;;;-0.28;85.30;96774.59;2064767;28;20206;-58
2022/01/31 01:27:55;;;;;;;13.82;4.45;;;;;;;-0.31;85.32;96783.25;2064628;28;20195;-58
2022/01/31 01:28:57;;;;;;;13.23;3.90;;;;;;;-0.33;85.51;96777.28;2064700;28;20205;-58
2022/01/31 01:29:58;;;;;;;10.07;4.72;;;;;;;-0.32;85.46;96773.81;2064235;28;20225;-58
2022/01/31 01:31:00;;;;;;;12.23;4.95;;;;;;;-0.26;85.41;96771.09;2064496;28;20245;-58
2022/01/31 01:32:03;;;;;;;15.63;4.05;;;;;;;-0.29;85.46;96765.19;2064664;28;20199;-58
2022/01/31 01:33:12;;;;;;;15.63;4.97;;;;;;;-0.33;85.35;96774.72;2063213;28;20202;-58
2022/01/31 01:34:14;;;;;;;16.67;4.70;;;;;;;-0.38;85.37;96760.25;2063995;28;20249;-58
2022/01/31 01:35:16;;;;;;;22.95;5.18;;;;;;;-0.62;85.82;96731.63;2064662;28;20530;-58
2022/01/31 01:36:19;;;;;;;14.95;4.53;;;;;;;-0.53;86.25;96744.28;2064713;28;20198;-58
2022/01/31 01:37:21;;;;;;;18.73;4.55;;;;;;;-0.47;86.10;96743.28;2064265;28;20199;-58
2022/01/31 01:38:28;;;;;;;15.13;5.18;;;;;;;-0.45;86.31;96744.94;2064629;28;20654;-58
2022/01/31 01:39:31;;;;;;;13.60;4.38;;;;;;;-0.39;86.04;96749.13;2063624;28;20229;-58
2022/01/31 01:40:39;;;;;;;14.98;4.07;;;;;;;-0.41;86.01;96740.59;2064551;28;20210;-58
2022/01/31 01:41:40;;;;;;;12.40;4.25;;;;;;;-0.41;86.20;96745.72;2064743;28;20213;-58
2022/01/31 01:42:42;;;;;;;30.85;6.55;;;;;;;-0.43;85.97;96724.34;2064622;28;20210;-58
2022/01/31 01:43:43;;;;;;;10.63;3.35;;;;;;;-0.22;85.61;96721.25;2064628;28;20198;-58
2022/01/31 01:44:50;;;;;;;15.13;4.00;;;;;;;-0.23;85.11;96713.56;2063615;28;20229;-58
2022/01/31 01:45:54;;;;;;;18.45;4.30;;;;;;;-0.44;85.63;96704.63;2064155;28;20210;-58
2022/01/31 01:46:55;;;;;;;16.15;3.90;;;;;;;-0.36;85.67;96720.72;2064433;28;20203;-58
2022/01/31 01:47:57;;;;;;;19.23;4.22;;;;;;;-0.36;85.61;96715.56;2061835;28;20204;-59
2022/01/31 01:48:58;;;;;;;20.73;4.00;;;;;;;-0.43;85.79;96694.28;2064469;28;20225;-58
2022/01/31 01:50:00;;;;;;;18.30;4.65;;;;;;;-0.45;86.13;96680.63;2064309;28;20221;-58
2022/01/31 01:51:02;;;;;;;17.23;3.70;;;;;;;-0.44;85.91;96660.88;2064445;28;20204;-58
2022/01/31 01:52:05;;;;;;;12.90;3.85;;;;;;;-0.49;85.89;96648.13;2064455;28;20206;-59
2022/01/31 01:53:07;;;;;;;14.05;4.03;;;;;;;-0.49;86.27;96644.69;2064385;28;20200;-58
2022/01/31 01:54:08;;;;;;;29.77;4.13;;;;;;;-0.47;86.45;96651.50;2062870;28;20213;-58
2022/01/31 01:55:10;;;;;;;18.35;4.40;;;;;;;-0.50;86.13;96654.13;2064615;28;20203;-59
2022/01/31 01:56:13;;;;;;;21.20;4.53;;;;;;;-0.45;86.17;96661.75;2064547;28;20209;-58
2022/01/31 01:57:16;;;;;;;21.70;4.43;;;;;;;-0.67;86.27;96610.78;2064590;28;21023;-59
2022/01/31 01:58:22;;;;;;;15.63;3.60;;;;;;;-0.50;86.12;96633.56;2064490;28;20645;-58
2022/01/31 01:59:24;;;;;;;16.85;3.35;;;;;;;-0.47;86.17;96630.91;2063890;28;20696;-58
2022/01/31 02:00:27;;;;;;;10.25;3.53;;;;;;;-0.51;86.23;96623.28;2064319;28;20233;-59
2022/01/31 02:01:29;;;;;;;23.70;4.45;;;;;;;-0.52;86.33;96616.47;2064413;28;20214;-58
2022/01/31 02:02:30;;;;;;;13.20;3.03;;;;;;;-0.53;86.48;96617.34;2064525;28;20204;-58
2022/01/31 02:03:35;;;;;;;16.73;3.53;;;;;;;-0.52;86.95;96606.19;2064474;28;20223;-58
2022/01/31 02:04:36;;;;;;;22.70;3.67;;;;;;;-0.56;86.70;96582.25;2063906;28;20220;-58
2022/01/31 02:05:40;;;;;;;15.85;4.15;;;;;;;-0.49;86.50;96588.94;2064466;28;20238;-58
2022/01/31 02:06:42;;;;;;;12.00;4.15;;;;;;;-0.53;86.53;96578.75;2064293;28;20223;-58
2022/01/31 02:07:44;;;;;;;15.85;3.92;;;;;;;-0.51;86.63;96588.13;2064299;28;20276;-58
2022/01/31 02:08:46;;;;;;;13.93;3.80;;;;;;;-0.50;86.43;96599.28;2064458;28;20203;-58
2022/01/31 02:09:54;;;;;;;14.85;3.08;;;;;;;-0.45;86.09;96595.69;2063723;28;20225;-59
2022/01/31 02:10:55;;;;;;;14.85;3.78;;;;;;;-0.34;85.86;96600.56;2062291;28;20196;-58
2022/01/31 02:11:57;;;;;;;12.00;3.40;;;;;;;-0.32;85.89;96593.63;2064462;28;20668;-59
2022/01/31 02:13:04;;;;;;;14.02;3.50;;;;;;;-0.31;85.80;96602.22;2064360;28;20553;-58
2022/01/31 02:14:06;;;;;;;16.08;3.75;;;;;;;-0.28;85.89;96597.81;2062656;28;20202;-58
2022/01/31 02:15:09;;;;;;;13.52;3.60;;;;;;;-0.43;85.38;96564.78;2064217;28;20194;-58
2022/01/31 02:16:11;;;;;;;15.68;3.83;;;;;;;-0.49;85.53;96558.06;2064235;28;20204;-58
2022/01/31 02:17:12;;;;;;;6.13;2.78;;;;;;;-0.26;85.50;96592.63;2063436;28;20244;-58
2022/01/31 02:18:15;;;;;;;17.15;3.55;;;;;;;-0.21;85.23;96601.94;2062529;28;20197;-59
2022/01/31 02:19:18;;;;;;;8.00;3.13;;;;;;;-0.21;85.35;96603.69;2063478;28;20236;-58
2022/01/31 02:20:19;;;;;;;16.17;3.38;;;;;;;-0.17;85.16;96599.28;2063386;28;20205;-58
2022/01/31 02:21:21;;;;;;;10.80;3.20;;;;;;;-0.16;84.84;96595.81;2064182;28;20209;-58
2022/01/31 02:22:23;;;;;;;12.45;3.40;;;;;;;-0.36;84.91;96563.72;2063968;28;20200;-58
2022/01/31 02:23:26;;;;;;;17.95;4.10;;;;;;;-0.10;85.00;96595.66;2064008;28;20202;-58
2022/01/31 02:24:30;;;;;;;15.35;4.43;;;;;;;-0.12;84.65;96579.41;2062835;28;20228;-58
2022/01/31 02:25:32;;;;;;;28.10;3.67;;;;;;;-0.24;84.69;96570.28;2063136;28;20263;-58
2022/01/31 02:26:33;;;;;;;15.57;3.45;;;;;;;-0.11;84.50;96581.94;2063237;28;20213;-58
2022/01/31 02:27:37;;;;;;;10.60;3.03;;;;;;;-0.11;84.75;96581.13;2064173;28;20202;-58
2022/01/31 02:28:40;;;;;;;8.07;2.88;;;;;;;-0.04;84.47;96570.59;2064033;28;20212;-58
2022/01/31 02:29:41;;;;;;;17.40;3.10;;;;;;;-0.04;84.46;96567.16;2063707;28;20233;-58
2022/01/31 02:30:43;;;;;;;14.35;3.53;;;;;;;-0.30;84.22;96504.38;2064146;28;20205;-58
2022/01/31 02:31:46;;;;;;;16.52;3.05;;;;;;;0.13;83.78;96570.13;2064245;28;20209;-58
2022/01/31 02:32:48;;;;;;;8.77;2.65;;;;;;;0.10;83.77;96577.94;2063996;28;20204;-58
2022/01/31 02:33:50;;;;;;;11.82;3.30;;;;;;;0.08;83.63;96584.88;2063615;28;20198;-58
2022/01/31 02:34:52;;;;;;;14.45;3.13;;;;;;;0.03;83.43;96560.97;2062445;28;20906;-58
2022/01/31 02:35:59;;;;;;;20.40;3.97;;;;;;;0.13;83.44;96577.00;2064158;28;20544;-58
2022/01/31 02:37:00;;;;;;;9.50;3.42;;;;;;;0.13;83.46;96570.13;2063952;28;20193;-58
2022/01/31 02:38:02;;;;;;;10.02;3.00;;;;;;;0.08;83.32;96556.56;2064116;28;20201;-58
2022/01/31 02:39:04;;;;;;;16.52;4.72;;;;;;;0.10;83.83;96559.94;2063627;28;20208;-58
2022/01/31 02:40:07;;;;;;;9.93;2.83;;;;;;;0.11;83.60;96571.91;2063197;28;20209;-58
2022/01/31 02:41:09;;;;;;;14.50;3.00;;;;;;;0.04;83.84;96552.38;2063370;28;20221;-58
2022/01/31 02:42:11;;;;;;;17.55;3.70;;;;;;;0.04;83.91;96547.22;2064059;28;20670;-58
2022/01/31 02:43:22;;;;;;;10.40;3.15;;;;;;;-0.07;84.14;96524.34;2064010;28;20208;-58
2022/01/31 02:44:24;;;;;;;18.60;3.53;;;;;;;-0.05;84.53;96524.28;2062860;28;20233;-58
2022/01/31 02:45:26;;;;;;;13.57;4.00;;;;;;;-0.14;84.71;96502.22;2063568;28;20198;-58
2022/01/31 02:46:28;;;;;;;16.30;4.45;;;;;;;-0.05;84.43;96521.72;2063998;28;20196;-58
2022/01/31 02:47:35;;;;;;;9.85;3.10;;;;;;;-0.01;84.49;96523.31;2063854;28;20212;-58
2022/01/31 02:48:36;;;;;;;16.23;3.72;;;;;;;-0.05;84.09;96526.88;2063393;28;20825;-58
2022/01/31 02:51:10;;;;;;;10.65;4.55;;;;;;;-0.01;83.92;96513.03;2062666;28;20564;-58
2022/01/31 02:52:14;;;;;;;16.92;3.50;;;;;;;-0.07;83.86;96488.28;2063206;28;20194;-58
2022/01/31 02:54:24;;;;;;;12.07;2.72;;;;;;;0.02;84.12;96470.88;2063389;28;20228;-59
2022/01/31 02:55:26;;;;;;;12.07;3.00;;;;;;;0.08;83.97;96473.28;2064013;28;20206;-59
2022/01/31 02:56:28;;;;;;;6.60;2.80;;;;;;;0.04;83.51;96466.53;2061826;28;20209;-59
2022/01/31 02:57:29;;;;;;;11.80;2.95;;;;;;;0.05;83.49;96439.91;2063713;28;20214;-59
2022/01/31 02:58:31;;;;;;;11.80;3.38;;;;;;;0.07;82.88;96451.00;2063890;28;20225;-58
2022/01/31 02:59:32;;;;;;;13.25;2.70;;;;;;;0.15;82.60;96444.72;2063081;28;20222;-59
2022/01/31 03:00:35;;;;;;;21.20;3.47;;;;;;;0.17;82.46;96439.53;2063835;28;20290;-58
2022/01/31 03:01:37;;;;;;;20.33;2.85;;;;;;;0.27;81.95;96445.25;2063780;28;20289;-58
2022/01/31 03:02:39;;;;;;;14.07;2.90;;;;;;;0.28;81.56;96441.78;2063872;28;20777;-58
2022/01/31 03:03:41;;;;;;;9.10;2.92;;;;;;;0.33;81.91;96463.97;2064084;28;20194;-58
2022/01/31 03:04:42;;;;;;;16.00;3.35;;;;;;;0.19;81.76;96437.75;2063479;28;20225;-59
2022/01/31 03:05:44;;;;;;;15.23;2.67;;;;;;;0.37;81.66;96462.09;2063903;28;20200;-58
2022/01/31 03:06:49;;;;;;;18.45;3.00;;;;;;;0.28;81.68;96452.94;2063953;28;20205;-59
2022/01/31 03:07:51;;;;;;;10.05;3.13;;;;;;;0.33;81.74;96452.78;2062147;28;20241;-58
2022/01/31 03:08:54;;;;;;;10.60;3.25;;;;;;;0.43;80.56;96437.88;2063906;28;21062;-58
2022/01/31 03:09:56;;;;;;;8.27;2.10;;;;;;;0.46;81.08;96419.75;2063505;28;20232;-59
2022/01/31 03:10:58;;;;;;;9.02;2.55;;;;;;;0.44;80.69;96412.06;2064038;28;20641;-58
2022/01/31 03:11:59;;;;;;;13.27;2.58;;;;;;;0.46;80.99;96414.63;2064034;28;20206;-58
2022/01/31 03:13:01;;;;;;;10.13;3.38;;;;;;;0.45;80.72;96410.34;2063836;28;20794;-58
2022/01/31 03:14:02;;;;;;;11.45;2.40;;;;;;;0.47;80.76;96406.84;2063481;28;20205;-59
2022/01/31 03:15:04;;;;;;;19.83;2.70;;;;;;;0.48;80.59;96405.94;2063958;28;20205;-58
2022/01/31 03:16:06;;;;;;;14.65;2.50;;;;;;;0.45;81.04;96394.88;2064049;28;20190;-58
2022/01/31 03:17:09;;;;;;;10.32;2.88;;;;;;;0.44;81.14;96398.34;2064058;28;20592;-59
2022/01/31 03:18:11;;;;;;;9.93;2.50;;;;;;;0.33;81.13;96378.94;2063796;28;20205;-59
2022/01/31 03:19:14;;;;;;;16.05;3.08;;;;;;;0.43;81.21;96397.50;2063547;28;20193;-59
2022/01/31 03:20:17;;;;;;;10.02;2.50;;;;;;;0.49;80.84;96397.31;2062154;28;20202;-58
2022/01/31 03:21:19;;;;;;;14.20;3.22;;;;;;;0.57;80.29;96391.94;2063897;28;20664;-59
2022/01/31 03:22:21;;;;;;;10.90;2.08;;;;;;;0.49;81.03;96388.72;2063898;28;20214;-58
2022/01/31 03:23:23;;;;;;;16.23;2.80;;;;;;;0.55;80.65;96394.53;2063811;28;20205;-59
2022/01/31 03:24:24;;;;;;;11.13;2.63;;;;;;;0.74;79.80;96391.34;2061825;28;20222;-58
2022/01/31 03:25:26;;;;;;;15.43;2.95;;;;;;;0.72;79.54;96360.47;2063924;28;20201;-58
2022/01/31 03:26:27;;;;;;;11.35;2.70;;;;;;;0.96;78.47;96371.69;2063395;28;20724;-59
2022/01/31 03:27:29;;;;;;;10.20;2.17;;;;;;;1.03;77.92;96364.59;2062242;28;20206;-59
2022/01/31 03:28:30;;;;;;;17.63;2.17;;;;;;;1.05;78.26;96364.53;2063780;28;20193;-58
2022/01/31 03:29:32;;;;;;;7.53;2.33;;;;;;;1.12;77.82;96359.13;2063473;28;20230;-59
2022/01/31 03:30:33;;;;;;;8.15;2.20;;;;;;;1.13;77.84;96349.63;2063870;28;20199;-58
2022/01/31 03:31:35;;;;;;;9.45;1.92;;;;;;;1.12;77.80;96330.75;2062370;28;20201;-59
2022/01/31 03:32:36;;;;;;;12.57;2.35;;;;;;;1.10;78.01;96327.38;2063869;28;20199;-59
2022/01/31 03:33:38;;;;;;;13.30;3.10;;;;;;;1.20;77.38;96320.16;2063910;28;20198;-59
2022/01/31 03:34:39;;;;;;;11.73;4.18;;;;;;;1.29;76.80;96308.63;2063319;28;20230;-59
2022/01/31 03:35:41;;;;;;;12.70;2.70;;;;;;;1.31;77.04;96312.88;2063869;28;20252;-59
2022/01/31 03:36:43;;;;;;;7.75;1.83;;;;;;;1.28;77.12;96315.53;2062238;28;20198;-59
2022/01/31 03:37:45;;;;;;;10.10;2.60;;;;;;;1.23;77.00;96299.38;2063688;28;20256;-59
2022/01/31 03:38:47;;;;;;;9.73;2.45;;;;;;;0.81;77.04;96234.75;2063782;28;20591;-59
2022/01/31 03:39:48;;;;;;;19.02;2.55;;;;;;;1.33;76.99;96321.38;2063300;28;20229;-59
2022/01/31 03:40:50;;;;;;;10.85;1.83;;;;;;;1.16;77.11;96303.94;2063957;28;20202;-59
2022/01/31 03:41:52;;;;;;;14.30;2.60;;;;;;;1.29;77.38;96352.50;2063679;28;20221;-59
2022/01/31 03:42:53;;;;;;;12.82;2.20;;;;;;;1.30;77.44;96367.09;2063770;28;20225;-59
2022/01/31 03:43:55;;;;;;;9.50;3.00;;;;;;;1.32;77.30;96376.47;2063717;28;20282;-59
2022/01/31 03:44:56;;;;;;;24.33;3.63;;;;;;;1.34;77.51;96384.16;2063356;28;20221;-59
2022/01/31 03:45:58;;;;;;;8.13;2.05;;;;;;;1.29;77.38;96371.41;2063705;28;20654;-58
2022/01/31 03:47:00;;;;;;;8.23;2.30;;;;;;;1.33;77.51;96366.97;2062756;28;20662;-59
2022/01/31 03:48:05;;;;;;;11.50;2.13;;;;;;;1.32;77.70;96366.13;2063845;28;20332;-59
2022/01/31 03:49:06;;;;;;;20.33;2.85;;;;;;;1.16;77.76;96339.22;2063194;28;20195;-59
2022/01/31 03:50:08;;;;;;;12.13;2.90;;;;;;;1.37;77.68;96373.72;2063582;28;20198;-59
2022/01/31 03:51:09;;;;;;;13.07;2.35;;;;;;;1.40;77.29;96375.34;2063857;28;20205;-59
2022/01/31 03:52:11;;;;;;;16.02;2.50;;;;;;;1.45;76.89;96361.41;2063559;28;20393;-59
2022/01/31 03:53:12;;;;;;;9.00;2.40;;;;;;;1.57;76.38;96354.94;2063133;28;20195;-59
2022/01/31 03:54:14;;;;;;;13.38;2.25;;;;;;;1.35;76.80;96332.50;2063670;28;20226;-59
2022/01/31 03:55:16;;;;;;;28.73;2.42;;;;;;;1.41;77.03;96343.47;2063102;28;20206;-59
2022/01/31 03:56:17;;;;;;;14.30;2.92;;;;;;;1.42;77.19;96360.66;2062829;28;20681;-59
2022/01/31 03:57:19;;;;;;;14.68;3.00;;;;;;;1.41;77.42;96343.47;2067405;28;20209;-59
2022/01/31 03:58:20;;;;;;;8.25;2.10;;;;;;;1.36;77.31;96335.91;2067139;28;20205;-59
2022/01/31 03:59:22;;;;;;;22.33;2.50;;;;;;;1.36;77.78;96344.47;2063361;28;20218;-59
2022/01/31 04:00:25;;;;;;;8.98;2.80;;;;;;;1.31;77.97;96340.38;2063756;28;20195;-58
2022/01/31 04:01:26;;;;;;;8.00;2.33;;;;;;;1.35;78.12;96353.13;2063806;28;20553;-59
2022/01/31 04:02:28;;;;;;;7.88;3.10;;;;;;;1.41;77.63;96348.63;2063715;28;20198;-59
2022/01/31 04:03:30;;;;;;;8.80;2.05;;;;;;;1.30;77.50;96321.50;2063758;28;20203;-59
2022/01/31 04:04:33;;;;;;;20.25;2.72;;;;;;;1.45;77.54;96340.75;2063218;28;20242;-58
2022/01/31 04:05:37;;;;;;;21.45;2.05;;;;;;;1.46;77.87;96346.75;2063703;28;20229;-59
2022/01/31 04:06:40;;;;;;;13.10;2.20;;;;;;;1.31;77.03;96301.69;2063082;28;20199;-59
2022/01/31 04:07:43;;;;;;;11.48;3.13;;;;;;;1.64;76.74;96346.06;2063560;28;20288;-59
2022/01/31 04:08:44;;;;;;;11.25;2.65;;;;;;;1.65;76.87;96352.91;2062568;28;20205;-59
2022/01/31 04:09:46;;;;;;;11.38;2.33;;;;;;;1.66;76.92;96348.56;2063327;28;20229;-59
2022/01/31 04:10:47;;;;;;;11.98;2.85;;;;;;;1.46;77.03;96320.94;2063690;28;20209;-58
2022/01/31 04:11:49;;;;;;;11.00;2.42;;;;;;;1.61;76.98;96340.16;2065049;28;20210;-59
2022/01/31 04:12:51;;;;;;;5.78;1.80;;;;;;;1.70;76.74;96350.16;2065171;28;20207;-59
2022/01/31 04:13:52;;;;;;;13.32;3.40;;;;;;;1.66;77.11;96354.56;2065004;28;20225;-59
2022/01/31 04:14:53;;;;;;;12.50;2.55;;;;;;;1.46;76.86;96308.84;2064077;28;20701;-59
2022/01/31 04:15:55;;;;;;;7.50;1.90;;;;;;;1.75;76.93;96343.91;2063737;28;20527;-59
2022/01/31 04:16:57;;;;;;;15.88;2.75;;;;;;;1.86;76.21;96327.16;2064734;28;20199;-59
2022/01/31 04:17:58;;;;;;;11.45;2.55;;;;;;;1.89;76.20;96340.81;2064628;28;20657;-59
2022/01/31 04:19:00;;;;;;;9.60;1.90;;;;;;;1.69;75.94;96302.84;2064222;28;20191;-59
2022/01/31 04:20:02;;;;;;;13.38;3.67;;;;;;;1.86;75.96;96322.00;2064973;28;20689;-59
2022/01/31 04:21:04;;;;;;;12.50;2.45;;;;;;;1.90;76.10;96320.97;2064829;28;20198;-59
2022/01/31 04:22:12;;;;;;;7.78;2.15;;;;;;;1.86;76.23;96314.25;2065047;28;20210;-59
2022/01/31 04:23:17;;;;;;;14.05;2.78;;;;;;;1.73;76.17;96288.06;2064817;28;20198;-58
2022/01/31 04:24:22;;;;;;;9.60;2.50;;;;;;;1.78;75.57;96283.56;2064372;28;20197;-59
2022/01/31 04:25:42;;;;;;;13.68;2.17;;;;;;;1.98;75.82;96314.63;2064030;28;20286;-58
2022/01/31 04:26:54;;;;;;;15.45;2.33;;;;;;;1.97;75.58;96306.94;2063171;28;20641;-58
2022/01/31 04:28:14;;;;;;;8.98;2.20;;;;;;;2.08;75.28;96309.94;2064696;28;20203;-59
2022/01/31 04:29:18;;;;;;;10.10;2.13;;;;;;;2.11;75.02;96301.22;2064237;28;20538;-59
2022/01/31 04:30:20;;;;;;;12.45;2.10;;;;;;;2.11;75.35;96299.47;2065046;28;20199;-59
2022/01/31 04:32:23;;;;;;;10.48;3.15;;;;;;;2.07;75.69;96303.06;2064884;28;20195;-59
2022/01/31 04:33:27;;;;;;;18.08;2.30;;;;;;;1.95;75.36;96280.31;2064634;28;20202;-59
2022/01/31 04:34:30;;;;;;;11.95;2.63;;;;;;;1.90;75.50;96279.66;2064132;28;20214;-59
2022/01/31 04:35:32;;;;;;;14.38;2.80;;;;;;;2.11;75.67;96303.81;2064259;28;20198;-59
2022/01/31 04:36:33;;;;;;;12.85;2.58;;;;;;;1.97;75.46;96271.59;2064088;28;20202;-59
2022/01/31 04:37:35;;;;;;;6.80;1.85;;;;;;;2.21;74.99;96283.59;2065081;28;20210;-59
2022/01/31 04:38:37;;;;;;;8.68;2.00;;;;;;;2.17;75.17;96283.72;2065115;28;20202;-59
2022/01/31 04:39:38;;;;;;;8.13;2.00;;;;;;;2.23;74.67;96267.13;2064492;28;20226;-59
2022/01/31 04:40:40;;;;;;;10.98;1.77;;;;;;;2.34;74.28;96271.88;2065344;28;20206;-59
2022/01/31 04:41:41;;;;;;;5.45;2.00;;;;;;;2.29;74.85;96273.78;2065306;28;20210;-59
2022/01/31 04:42:44;;;;;;;10.88;1.98;;;;;;;2.30;74.60;96275.47;2065368;28;20620;-59
2022/01/31 04:43:48;;;;;;;9.93;2.67;;;;;;;2.26;74.88;96268.75;2065482;28;20199;-59
2022/01/31 04:44:49;;;;;;;11.38;2.70;;;;;;;2.25;74.83;96259.31;2064849;28;20214;-60
2022/01/31 04:45:51;;;;;;;15.32;3.08;;;;;;;2.28;74.49;96260.03;2065225;28;20204;-60
2022/01/31 04:46:54;;;;;;;15.88;2.45;;;;;;;2.34;74.40;96256.34;2064880;28;20205;-59
2022/01/31 04:47:56;;;;;;;6.05;2.00;;;;;;;2.45;73.92;96259.34;2065159;28;20197;-60
2022/01/31 04:48:57;;;;;;;11.05;2.70;;;;;;;2.41;73.95;96256.94;2065295;28;20225;-59
2022/01/31 04:49:59;;;;;;;16.70;2.92;;;;;;;2.41;74.17;96246.59;2064719;28;20233;-60
2022/01/31 04:51:01;;;;;;;8.20;2.65;;;;;;;2.43;74.19;96244.78;2064308;28;20538;-60
2022/01/31 04:52:03;;;;;;;12.02;2.50;;;;;;;2.42;74.40;96237.94;2065200;28;20195;-59
2022/01/31 04:53:05;;;;;;;5.47;1.85;;;;;;;2.38;74.39;96243.22;2065158;28;20199;-60
2022/01/31 04:54:06;;;;;;;11.60;2.30;;;;;;;2.38;74.26;96227.72;2064788;28;20199;-59
2022/01/31 04:55:09;;;;;;;14.38;2.47;;;;;;;2.48;73.99;96229.94;2065194;28;20201;-60
2022/01/31 04:56:11;;;;;;;8.55;2.40;;;;;;;2.41;74.11;96215.56;2065309;28;20250;-60
2022/01/31 04:57:12;;;;;;;12.82;2.38;;;;;;;2.44;74.01;96212.88;2065250;28;20198;-60